sensor_id;sensor_type;location;lat;lon;timestamp;temperature;humidity
316;DHT22;14128;48.686;9.738;2022-11-20T00:01:09;6.20;1.40
316;DHT22;14128;48.686;9.738;2022-11-20T00:03:36;6.10;1.40
316;DHT22;14128;48.686;9.738;2022-11-20T00:06:04;6.00;1.40
316;DHT22;14128;48.686;9.738;2022-11-20T00:08:31;6.00;1.40
316;DHT22;14128;48.686;9.738;2022-11-20T00:11:03;5.80;1.40
316;DHT22;14128;48.686;9.738;2022-11-20T00:13:30;5.60;1.40
316;DHT22;14128;48.686;9.738;2022-11-20T00:15:57;5.40;1.40
316;DHT22;14128;48.686;9.738;2022-11-20T00:18:25;5.30;1.40
316;DHT22;14128;48.686;9.738;2022-11-20T00:20:52;5.10;1.40
316;DHT22;14128;48.686;9.738;2022-11-20T00:23:19;5.00;1.40
316;DHT22;14128;48.686;9.738;2022-11-20T00:25:46;5.00;1.40
316;DHT22;14128;48.686;9.738;2022-11-20T00:28:13;4.90;1.40
316;DHT22;14128;48.686;9.738;2022-11-20T00:30:40;4.80;1.40
316;DHT22;14128;48.686;9.738;2022-11-20T00:33:07;4.70;1.40
316;DHT22;14128;48.686;9.738;2022-11-20T00:35:35;4.70;1.40
316;DHT22;14128;48.686;9.738;2022-11-20T00:38:02;4.60;1.40
316;DHT22;14128;48.686;9.738;2022-11-20T00:40:28;4.50;1.40
316;DHT22;14128;48.686;9.738;2022-11-20T00:42:55;4.50;1.40
316;DHT22;14128;48.686;9.738;2022-11-20T00:45:22;4.50;1.40
316;DHT22;14128;48.686;9.738;2022-11-20T00:47:49;4.40;1.40
316;DHT22;14128;48.686;9.738;2022-11-20T00:50:16;4.30;1.40
316;DHT22;14128;48.686;9.738;2022-11-20T00:52:44;4.30;1.40
316;DHT22;14128;48.686;9.738;2022-11-20T00:55:11;4.20;1.40
316;DHT22;14128;48.686;9.738;2022-11-20T00:57:37;4.20;1.40
316;DHT22;14128;48.686;9.738;2022-11-20T01:00:05;4.20;1.40
316;DHT22;14128;48.686;9.738;2022-11-20T01:02:32;4.10;1.40
316;DHT22;14128;48.686;9.738;2022-11-20T01:04:59;4.10;1.40
316;DHT22;14128;48.686;9.738;2022-11-20T01:07:26;4.00;1.40
316;DHT22;14128;48.686;9.738;2022-11-20T01:09:54;4.00;1.40
316;DHT22;14128;48.686;9.738;2022-11-20T01:12:21;4.00;1.40
316;DHT22;14128;48.686;9.738;2022-11-20T01:14:47;3.90;1.40
316;DHT22;14128;48.686;9.738;2022-11-20T01:17:14;3.90;1.40
316;DHT22;14128;48.686;9.738;2022-11-20T01:19:41;3.90;1.40
316;DHT22;14128;48.686;9.738;2022-11-20T01:22:08;3.90;1.40
316;DHT22;14128;48.686;9.738;2022-11-20T01:24:35;3.90;1.40
316;DHT22;14128;48.686;9.738;2022-11-20T01:27:03;3.90;1.40
316;DHT22;14128;48.686;9.738;2022-11-20T01:29:30;3.90;1.40
316;DHT22;14128;48.686;9.738;2022-11-20T01:31:56;3.90;1.40
316;DHT22;14128;48.686;9.738;2022-11-20T01:34:23;3.90;1.40
316;DHT22;14128;48.686;9.738;2022-11-20T01:36:51;3.80;1.40
316;DHT22;14128;48.686;9.738;2022-11-20T01:39:20;3.80;1.40
316;DHT22;14128;48.686;9.738;2022-11-20T01:41:49;3.80;1.40
316;DHT22;14128;48.686;9.738;2022-11-20T01:44:50;3.70;1.40
316;DHT22;14128;48.686;9.738;2022-11-20T01:47:21;3.70;1.40
316;DHT22;14128;48.686;9.738;2022-11-20T01:49:52;3.70;1.40
316;DHT22;14128;48.686;9.738;2022-11-20T01:52:21;3.80;1.40
316;DHT22;14128;48.686;9.738;2022-11-20T01:54:52;3.80;1.40
316;DHT22;14128;48.686;9.738;2022-11-20T01:57:20;4.00;1.40
316;DHT22;14128;48.686;9.738;2022-11-20T01:59:53;4.10;1.40
316;DHT22;14128;48.686;9.738;2022-11-20T02:02:22;4.20;1.40
316;DHT22;14128;48.686;9.738;2022-11-20T02:04:50;4.20;1.40
316;DHT22;14128;48.686;9.738;2022-11-20T02:07:18;4.20;1.40
316;DHT22;14128;48.686;9.738;2022-11-20T02:09:46;4.20;1.40
316;DHT22;14128;48.686;9.738;2022-11-20T02:12:14;4.10;1.40
316;DHT22;14128;48.686;9.738;2022-11-20T02:14:56;4.10;1.40
316;DHT22;14128;48.686;9.738;2022-11-20T02:17:23;4.20;1.40
316;DHT22;14128;48.686;9.738;2022-11-20T02:19:51;4.20;1.40
316;DHT22;14128;48.686;9.738;2022-11-20T02:22:20;4.10;1.40
316;DHT22;14128;48.686;9.738;2022-11-20T02:24:50;4.10;1.40
316;DHT22;14128;48.686;9.738;2022-11-20T02:27:18;4.10;1.40
316;DHT22;14128;48.686;9.738;2022-11-20T02:29:47;4.00;1.40
316;DHT22;14128;48.686;9.738;2022-11-20T02:32:20;4.00;1.40
316;DHT22;14128;48.686;9.738;2022-11-20T02:34:47;4.00;1.40
316;DHT22;14128;48.686;9.738;2022-11-20T02:37:14;3.90;1.40
316;DHT22;14128;48.686;9.738;2022-11-20T02:39:41;3.80;1.40
316;DHT22;14128;48.686;9.738;2022-11-20T02:42:11;3.70;1.40
316;DHT22;14128;48.686;9.738;2022-11-20T02:44:37;3.70;1.40
316;DHT22;14128;48.686;9.738;2022-11-20T02:47:04;3.60;1.40
316;DHT22;14128;48.686;9.738;2022-11-20T02:49:31;3.60;1.40
316;DHT22;14128;48.686;9.738;2022-11-20T02:51:58;3.50;1.40
316;DHT22;14128;48.686;9.738;2022-11-20T02:54:25;3.40;1.40
316;DHT22;14128;48.686;9.738;2022-11-20T02:56:52;3.30;1.40
316;DHT22;14128;48.686;9.738;2022-11-20T02:59:20;3.20;1.40
316;DHT22;14128;48.686;9.738;2022-11-20T03:01:47;3.10;1.40
316;DHT22;14128;48.686;9.738;2022-11-20T03:04:14;2.90;1.40
316;DHT22;14128;48.686;9.738;2022-11-20T03:06:40;2.70;1.40
316;DHT22;14128;48.686;9.738;2022-11-20T03:09:07;2.60;1.40
316;DHT22;14128;48.686;9.738;2022-11-20T03:11:34;2.70;1.40
316;DHT22;14128;48.686;9.738;2022-11-20T03:14:02;2.70;1.40
316;DHT22;14128;48.686;9.738;2022-11-20T03:16:31;2.80;1.40
316;DHT22;14128;48.686;9.738;2022-11-20T03:18:58;2.90;1.40
316;DHT22;14128;48.686;9.738;2022-11-20T03:21:25;2.90;1.40
316;DHT22;14128;48.686;9.738;2022-11-20T03:23:53;3.00;1.40
316;DHT22;14128;48.686;9.738;2022-11-20T03:26:21;2.90;1.40
316;DHT22;14128;48.686;9.738;2022-11-20T03:28:50;3.00;1.40
316;DHT22;14128;48.686;9.738;2022-11-20T03:31:18;3.10;1.40
316;DHT22;14128;48.686;9.738;2022-11-20T03:33:47;3.10;1.40
316;DHT22;14128;48.686;9.738;2022-11-20T03:36:16;3.20;1.40
316;DHT22;14128;48.686;9.738;2022-11-20T03:38:43;3.20;1.40
316;DHT22;14128;48.686;9.738;2022-11-20T03:41:11;3.30;1.40
316;DHT22;14128;48.686;9.738;2022-11-20T03:43:38;3.40;1.40
316;DHT22;14128;48.686;9.738;2022-11-20T03:46:06;3.40;1.40
316;DHT22;14128;48.686;9.738;2022-11-20T03:48:33;3.70;1.40
316;DHT22;14128;48.686;9.738;2022-11-20T03:51:09;3.90;1.40
316;DHT22;14128;48.686;9.738;2022-11-20T03:53:36;4.00;1.40
316;DHT22;14128;48.686;9.738;2022-11-20T03:56:03;4.10;1.40
316;DHT22;14128;48.686;9.738;2022-11-20T03:58:30;4.20;1.40
316;DHT22;14128;48.686;9.738;2022-11-20T04:01:04;4.30;1.40
316;DHT22;14128;48.686;9.738;2022-11-20T04:03:31;4.40;1.40
316;DHT22;14128;48.686;9.738;2022-11-20T04:06:01;4.40;1.40
316;DHT22;14128;48.686;9.738;2022-11-20T04:08:30;4.50;1.40
316;DHT22;14128;48.686;9.738;2022-11-20T04:10:56;4.50;1.40
316;DHT22;14128;48.686;9.738;2022-11-20T04:13:33;4.50;1.40
316;DHT22;14128;48.686;9.738;2022-11-20T04:16:00;4.50;1.40
316;DHT22;14128;48.686;9.738;2022-11-20T04:18:27;4.40;1.40
316;DHT22;14128;48.686;9.738;2022-11-20T04:20:54;4.40;1.40
316;DHT22;14128;48.686;9.738;2022-11-20T04:23:22;4.50;1.40
316;DHT22;14128;48.686;9.738;2022-11-20T04:25:50;4.40;1.40
316;DHT22;14128;48.686;9.738;2022-11-20T04:28:17;4.40;1.40
316;DHT22;14128;48.686;9.738;2022-11-20T04:30:44;4.20;1.40
316;DHT22;14128;48.686;9.738;2022-11-20T04:33:11;4.10;1.40
316;DHT22;14128;48.686;9.738;2022-11-20T04:35:38;4.00;1.40
316;DHT22;14128;48.686;9.738;2022-11-20T04:38:04;3.90;1.40
316;DHT22;14128;48.686;9.738;2022-11-20T04:40:31;3.90;1.40
316;DHT22;14128;48.686;9.738;2022-11-20T04:43:00;3.90;1.40
316;DHT22;14128;48.686;9.738;2022-11-20T04:45:26;3.90;1.40
316;DHT22;14128;48.686;9.738;2022-11-20T04:47:53;3.90;1.40
316;DHT22;14128;48.686;9.738;2022-11-20T04:50:20;4.00;1.40
316;DHT22;14128;48.686;9.738;2022-11-20T04:52:47;4.10;1.40
316;DHT22;14128;48.686;9.738;2022-11-20T04:55:13;4.20;1.40
316;DHT22;14128;48.686;9.738;2022-11-20T04:57:40;4.30;1.40
316;DHT22;14128;48.686;9.738;2022-11-20T05:00:10;4.40;1.40
316;DHT22;14128;48.686;9.738;2022-11-20T05:02:37;4.50;1.40
316;DHT22;14128;48.686;9.738;2022-11-20T05:05:04;4.60;1.40
316;DHT22;14128;48.686;9.738;2022-11-20T05:07:31;4.60;1.40
316;DHT22;14128;48.686;9.738;2022-11-20T05:09:57;4.60;1.40
316;DHT22;14128;48.686;9.738;2022-11-20T05:12:24;4.60;1.40
316;DHT22;14128;48.686;9.738;2022-11-20T05:14:51;4.70;1.40
316;DHT22;14128;48.686;9.738;2022-11-20T05:17:19;4.70;1.40
316;DHT22;14128;48.686;9.738;2022-11-20T05:19:46;4.80;1.40
316;DHT22;14128;48.686;9.738;2022-11-20T05:22:12;4.80;1.40
316;DHT22;14128;48.686;9.738;2022-11-20T05:24:39;4.90;1.40
316;DHT22;14128;48.686;9.738;2022-11-20T05:27:06;5.00;1.40
316;DHT22;14128;48.686;9.738;2022-11-20T05:29:33;5.20;1.40
316;DHT22;14128;48.686;9.738;2022-11-20T05:32:00;5.30;1.40
316;DHT22;14128;48.686;9.738;2022-11-20T05:34:28;5.40;1.40
316;DHT22;14128;48.686;9.738;2022-11-20T05:36:54;5.40;1.40
316;DHT22;14128;48.686;9.738;2022-11-20T05:39:21;5.50;1.40
316;DHT22;14128;48.686;9.738;2022-11-20T05:41:48;5.50;1.40
316;DHT22;14128;48.686;9.738;2022-11-20T05:44:35;5.50;1.40
316;DHT22;14128;48.686;9.738;2022-11-20T05:47:01;5.60;1.40
316;DHT22;14128;48.686;9.738;2022-11-20T05:49:29;5.60;1.40
316;DHT22;14128;48.686;9.738;2022-11-20T05:51:56;5.60;1.40
316;DHT22;14128;48.686;9.738;2022-11-20T05:54:23;5.70;1.40
316;DHT22;14128;48.686;9.738;2022-11-20T05:56:50;5.70;1.40
316;DHT22;14128;48.686;9.738;2022-11-20T05:59:16;5.70;1.40
316;DHT22;14128;48.686;9.738;2022-11-20T06:01:43;5.70;1.40
316;DHT22;14128;48.686;9.738;2022-11-20T06:04:10;5.80;1.40
316;DHT22;14128;48.686;9.738;2022-11-20T06:06:38;5.80;1.40
316;DHT22;14128;48.686;9.738;2022-11-20T06:09:05;5.90;1.40
316;DHT22;14128;48.686;9.738;2022-11-20T06:11:32;5.80;1.40
316;DHT22;14128;48.686;9.738;2022-11-20T06:13:59;5.80;1.40
316;DHT22;14128;48.686;9.738;2022-11-20T06:16:25;5.90;1.40
316;DHT22;14128;48.686;9.738;2022-11-20T06:18:52;5.90;1.40
316;DHT22;14128;48.686;9.738;2022-11-20T06:21:21;5.90;1.40
316;DHT22;14128;48.686;9.738;2022-11-20T06:23:50;5.90;1.40
316;DHT22;14128;48.686;9.738;2022-11-20T06:26:20;5.90;1.40
316;DHT22;14128;48.686;9.738;2022-11-20T06:28:47;5.90;1.40
316;DHT22;14128;48.686;9.738;2022-11-20T06:31:15;5.90;1.40
316;DHT22;14128;48.686;9.738;2022-11-20T06:33:44;6.00;1.40
316;DHT22;14128;48.686;9.738;2022-11-20T06:36:12;6.00;1.40
316;DHT22;14128;48.686;9.738;2022-11-20T06:38:39;6.00;1.40
316;DHT22;14128;48.686;9.738;2022-11-20T06:41:11;6.10;1.40
316;DHT22;14128;48.686;9.738;2022-11-20T06:43:39;6.10;1.40
316;DHT22;14128;48.686;9.738;2022-11-20T06:46:06;6.10;1.40
316;DHT22;14128;48.686;9.738;2022-11-20T06:48:33;6.10;1.40
316;DHT22;14128;48.686;9.738;2022-11-20T06:50:59;6.10;1.40
316;DHT22;14128;48.686;9.738;2022-11-20T06:53:29;6.10;1.40
316;DHT22;14128;48.686;9.738;2022-11-20T06:55:56;6.10;1.40
316;DHT22;14128;48.686;9.738;2022-11-20T06:58:27;6.10;1.40
316;DHT22;14128;48.686;9.738;2022-11-20T07:00:54;6.10;1.40
316;DHT22;14128;48.686;9.738;2022-11-20T07:03:23;6.10;1.40
316;DHT22;14128;48.686;9.738;2022-11-20T07:05:50;6.20;1.40
316;DHT22;14128;48.686;9.738;2022-11-20T07:08:17;6.20;1.40
316;DHT22;14128;48.686;9.738;2022-11-20T07:10:44;6.30;1.40
316;DHT22;14128;48.686;9.738;2022-11-20T07:13:11;6.30;1.40
316;DHT22;14128;48.686;9.738;2022-11-20T07:15:39;6.30;1.40
316;DHT22;14128;48.686;9.738;2022-11-20T07:18:06;6.40;1.40
316;DHT22;14128;48.686;9.738;2022-11-20T07:20:33;6.40;1.40
316;DHT22;14128;48.686;9.738;2022-11-20T07:23:00;6.40;1.40
316;DHT22;14128;48.686;9.738;2022-11-20T07:25:27;6.40;1.40
316;DHT22;14128;48.686;9.738;2022-11-20T07:27:57;6.40;1.40
316;DHT22;14128;48.686;9.738;2022-11-20T07:30:24;6.40;1.40
316;DHT22;14128;48.686;9.738;2022-11-20T07:32:52;6.50;1.40
316;DHT22;14128;48.686;9.738;2022-11-20T07:35:19;6.40;1.40
316;DHT22;14128;48.686;9.738;2022-11-20T07:37:47;6.50;1.40
316;DHT22;14128;48.686;9.738;2022-11-20T07:40:14;6.50;1.40
316;DHT22;14128;48.686;9.738;2022-11-20T07:42:47;6.50;1.40
316;DHT22;14128;48.686;9.738;2022-11-20T07:45:14;6.50;1.40
316;DHT22;14128;48.686;9.738;2022-11-20T07:47:41;6.60;1.40
316;DHT22;14128;48.686;9.738;2022-11-20T07:50:10;6.60;1.40
316;DHT22;14128;48.686;9.738;2022-11-20T07:52:37;6.60;1.40
316;DHT22;14128;48.686;9.738;2022-11-20T07:55:04;6.60;1.40
316;DHT22;14128;48.686;9.738;2022-11-20T07:57:31;6.60;1.40
316;DHT22;14128;48.686;9.738;2022-11-20T07:59:58;6.70;1.40
316;DHT22;14128;48.686;9.738;2022-11-20T08:02:25;6.70;1.40
316;DHT22;14128;48.686;9.738;2022-11-20T08:04:51;6.70;1.40
316;DHT22;14128;48.686;9.738;2022-11-20T08:07:19;6.80;1.40
316;DHT22;14128;48.686;9.738;2022-11-20T08:09:46;6.80;1.40
316;DHT22;14128;48.686;9.738;2022-11-20T08:12:18;6.90;1.40
316;DHT22;14128;48.686;9.738;2022-11-20T08:15:03;6.90;1.40
316;DHT22;14128;48.686;9.738;2022-11-20T08:17:29;6.90;1.40
316;DHT22;14128;48.686;9.738;2022-11-20T08:19:57;6.90;1.40
316;DHT22;14128;48.686;9.738;2022-11-20T08:22:25;6.90;1.40
316;DHT22;14128;48.686;9.738;2022-11-20T08:24:51;7.00;1.40
316;DHT22;14128;48.686;9.738;2022-11-20T08:27:18;7.00;1.40
316;DHT22;14128;48.686;9.738;2022-11-20T08:29:45;7.10;1.40
316;DHT22;14128;48.686;9.738;2022-11-20T08:32:12;7.20;1.40
316;DHT22;14128;48.686;9.738;2022-11-20T08:34:38;7.30;1.40
316;DHT22;14128;48.686;9.738;2022-11-20T08:37:05;7.40;1.40
316;DHT22;14128;48.686;9.738;2022-11-20T08:39:33;7.40;1.40
316;DHT22;14128;48.686;9.738;2022-11-20T08:42:00;7.40;1.40
316;DHT22;14128;48.686;9.738;2022-11-20T08:44:27;7.30;1.40
316;DHT22;14128;48.686;9.738;2022-11-20T08:46:54;7.30;1.40
316;DHT22;14128;48.686;9.738;2022-11-20T08:49:20;7.20;1.40
316;DHT22;14128;48.686;9.738;2022-11-20T08:51:47;7.20;1.40
316;DHT22;14128;48.686;9.738;2022-11-20T08:54:17;7.10;1.40
316;DHT22;14128;48.686;9.738;2022-11-20T08:56:46;7.10;1.40
316;DHT22;14128;48.686;9.738;2022-11-20T08:59:13;7.10;1.40
316;DHT22;14128;48.686;9.738;2022-11-20T09:01:40;7.10;1.40
316;DHT22;14128;48.686;9.738;2022-11-20T09:04:07;7.10;1.40
316;DHT22;14128;48.686;9.738;2022-11-20T09:06:33;7.10;1.40
316;DHT22;14128;48.686;9.738;2022-11-20T09:09:00;7.10;1.40
316;DHT22;14128;48.686;9.738;2022-11-20T09:11:27;7.20;1.40
316;DHT22;14128;48.686;9.738;2022-11-20T09:13:55;7.30;1.40
316;DHT22;14128;48.686;9.738;2022-11-20T09:16:22;7.40;1.40
316;DHT22;14128;48.686;9.738;2022-11-20T09:18:50;7.50;1.40
316;DHT22;14128;48.686;9.738;2022-11-20T09:21:17;7.50;1.40
316;DHT22;14128;48.686;9.738;2022-11-20T09:23:44;7.40;1.40
316;DHT22;14128;48.686;9.738;2022-11-20T09:26:13;7.40;1.40
316;DHT22;14128;48.686;9.738;2022-11-20T09:28:40;7.40;1.40
316;DHT22;14128;48.686;9.738;2022-11-20T09:31:16;7.40;1.40
316;DHT22;14128;48.686;9.738;2022-11-20T09:33:44;7.40;1.40
316;DHT22;14128;48.686;9.738;2022-11-20T09:36:11;7.30;1.40
316;DHT22;14128;48.686;9.738;2022-11-20T09:38:38;7.30;1.40
316;DHT22;14128;48.686;9.738;2022-11-20T09:41:06;7.30;1.40
316;DHT22;14128;48.686;9.738;2022-11-20T09:43:45;7.30;1.40
316;DHT22;14128;48.686;9.738;2022-11-20T09:46:21;7.30;1.40
316;DHT22;14128;48.686;9.738;2022-11-20T09:51:42;7.40;1.40
316;DHT22;14128;48.686;9.738;2022-11-20T09:54:16;7.50;1.40
316;DHT22;14128;48.686;9.738;2022-11-20T09:56:46;7.60;1.40
316;DHT22;14128;48.686;9.738;2022-11-20T09:59:32;7.50;1.40
316;DHT22;14128;48.686;9.738;2022-11-20T10:02:03;7.40;1.40
316;DHT22;14128;48.686;9.738;2022-11-20T10:04:43;7.40;1.40
316;DHT22;14128;48.686;9.738;2022-11-20T10:07:15;7.40;1.40
316;DHT22;14128;48.686;9.738;2022-11-20T10:09:49;7.50;1.40
316;DHT22;14128;48.686;9.738;2022-11-20T10:12:22;7.40;1.40
316;DHT22;14128;48.686;9.738;2022-11-20T10:14:59;7.40;1.40
316;DHT22;14128;48.686;9.738;2022-11-20T10:18:01;7.30;1.40
316;DHT22;14128;48.686;9.738;2022-11-20T10:20:35;7.20;1.40
316;DHT22;14128;48.686;9.738;2022-11-20T10:23:21;7.30;1.40
316;DHT22;14128;48.686;9.738;2022-11-20T10:25:56;7.30;1.40
316;DHT22;14128;48.686;9.738;2022-11-20T10:28:39;7.30;1.40
316;DHT22;14128;48.686;9.738;2022-11-20T10:31:14;7.20;1.40
316;DHT22;14128;48.686;9.738;2022-11-20T10:33:45;7.20;1.40
316;DHT22;14128;48.686;9.738;2022-11-20T10:36:19;7.20;1.40
316;DHT22;14128;48.686;9.738;2022-11-20T10:38:51;7.20;1.40
316;DHT22;14128;48.686;9.738;2022-11-20T10:41:24;7.30;1.40
316;DHT22;14128;48.686;9.738;2022-11-20T10:44:01;7.30;1.40
316;DHT22;14128;48.686;9.738;2022-11-20T10:46:36;7.30;1.40
316;DHT22;14128;48.686;9.738;2022-11-20T10:49:12;7.40;1.40
316;DHT22;14128;48.686;9.738;2022-11-20T10:51:49;7.40;1.40
316;DHT22;14128;48.686;9.738;2022-11-20T10:54:24;7.50;1.40
316;DHT22;14128;48.686;9.738;2022-11-20T10:56:58;7.50;1.40
316;DHT22;14128;48.686;9.738;2022-11-20T10:59:38;7.50;1.40
316;DHT22;14128;48.686;9.738;2022-11-20T11:02:19;7.40;1.40
316;DHT22;14128;48.686;9.738;2022-11-20T11:04:49;7.40;1.40
316;DHT22;14128;48.686;9.738;2022-11-20T11:07:19;7.30;1.40
316;DHT22;14128;48.686;9.738;2022-11-20T11:09:49;7.30;1.40
316;DHT22;14128;48.686;9.738;2022-11-20T11:12:16;7.30;1.40
316;DHT22;14128;48.686;9.738;2022-11-20T11:14:46;7.30;1.40
316;DHT22;14128;48.686;9.738;2022-11-20T11:17:24;7.20;1.40
316;DHT22;14128;48.686;9.738;2022-11-20T11:20:02;7.00;1.40
316;DHT22;14128;48.686;9.738;2022-11-20T11:22:31;6.90;1.40
316;DHT22;14128;48.686;9.738;2022-11-20T11:24:59;6.70;1.40
316;DHT22;14128;48.686;9.738;2022-11-20T11:27:26;6.70;1.40
316;DHT22;14128;48.686;9.738;2022-11-20T11:30:12;6.60;1.40
316;DHT22;14128;48.686;9.738;2022-11-20T11:32:39;6.50;1.40
316;DHT22;14128;48.686;9.738;2022-11-20T11:35:23;6.50;1.40
316;DHT22;14128;48.686;9.738;2022-11-20T11:37:52;6.50;1.40
316;DHT22;14128;48.686;9.738;2022-11-20T11:40:21;6.40;1.40
316;DHT22;14128;48.686;9.738;2022-11-20T11:42:56;6.30;1.40
316;DHT22;14128;48.686;9.738;2022-11-20T11:45:24;6.30;1.40
316;DHT22;14128;48.686;9.738;2022-11-20T11:47:53;6.20;1.40
316;DHT22;14128;48.686;9.738;2022-11-20T11:50:23;6.20;1.40
316;DHT22;14128;48.686;9.738;2022-11-20T11:53:01;6.20;1.40
316;DHT22;14128;48.686;9.738;2022-11-20T11:55:33;6.00;1.40
316;DHT22;14128;48.686;9.738;2022-11-20T11:58:14;6.10;1.40
316;DHT22;14128;48.686;9.738;2022-11-20T12:00:49;6.10;1.40
316;DHT22;14128;48.686;9.738;2022-11-20T12:03:20;6.00;1.40
316;DHT22;14128;48.686;9.738;2022-11-20T12:05:53;6.10;1.40
316;DHT22;14128;48.686;9.738;2022-11-20T12:08:26;6.20;1.40
316;DHT22;14128;48.686;9.738;2022-11-20T12:10:58;6.30;1.40
316;DHT22;14128;48.686;9.738;2022-11-20T12:13:45;6.40;1.40
316;DHT22;14128;48.686;9.738;2022-11-20T12:16:15;6.60;1.40
316;DHT22;14128;48.686;9.738;2022-11-20T12:18:43;6.70;1.40
316;DHT22;14128;48.686;9.738;2022-11-20T12:21:18;6.70;1.40
316;DHT22;14128;48.686;9.738;2022-11-20T12:23:59;6.80;1.40
316;DHT22;14128;48.686;9.738;2022-11-20T12:26:41;7.00;1.40
316;DHT22;14128;48.686;9.738;2022-11-20T12:29:13;7.20;1.40
316;DHT22;14128;48.686;9.738;2022-11-20T12:32:06;7.10;1.40
316;DHT22;14128;48.686;9.738;2022-11-20T12:34:56;7.20;1.40
316;DHT22;14128;48.686;9.738;2022-11-20T12:37:36;7.60;1.40
316;DHT22;14128;48.686;9.738;2022-11-20T12:40:14;7.50;1.40
316;DHT22;14128;48.686;9.738;2022-11-20T12:43:01;7.40;1.40
316;DHT22;14128;48.686;9.738;2022-11-20T12:46:05;7.10;1.40
316;DHT22;14128;48.686;9.738;2022-11-20T12:48:41;6.70;1.40
316;DHT22;14128;48.686;9.738;2022-11-20T12:51:39;6.40;1.40
316;DHT22;14128;48.686;9.738;2022-11-20T12:57:16;6.00;1.40
316;DHT22;14128;48.686;9.738;2022-11-20T13:00:07;5.90;1.40
316;DHT22;14128;48.686;9.738;2022-11-20T13:02:41;6.10;1.40
316;DHT22;14128;48.686;9.738;2022-11-20T13:05:19;6.40;1.40
316;DHT22;14128;48.686;9.738;2022-11-20T13:07:50;6.70;1.40
316;DHT22;14128;48.686;9.738;2022-11-20T13:10:25;6.80;1.40
316;DHT22;14128;48.686;9.738;2022-11-20T13:12:56;7.00;1.40
316;DHT22;14128;48.686;9.738;2022-11-20T13:15:39;6.90;1.40
316;DHT22;14128;48.686;9.738;2022-11-20T13:18:11;7.00;1.40
316;DHT22;14128;48.686;9.738;2022-11-20T13:20:42;7.20;1.40
316;DHT22;14128;48.686;9.738;2022-11-20T13:23:09;7.30;1.40
316;DHT22;14128;48.686;9.738;2022-11-20T13:25:39;7.20;1.40
316;DHT22;14128;48.686;9.738;2022-11-20T13:28:26;7.10;1.40
316;DHT22;14128;48.686;9.738;2022-11-20T13:30:55;7.00;1.40
316;DHT22;14128;48.686;9.738;2022-11-20T13:33:25;6.90;1.40
316;DHT22;14128;48.686;9.738;2022-11-20T13:35:56;6.90;1.40
316;DHT22;14128;48.686;9.738;2022-11-20T13:38:24;6.90;1.40
316;DHT22;14128;48.686;9.738;2022-11-20T13:40:53;6.80;1.40
316;DHT22;14128;48.686;9.738;2022-11-20T13:43:32;6.80;1.40
316;DHT22;14128;48.686;9.738;2022-11-20T13:46:02;6.80;1.40
316;DHT22;14128;48.686;9.738;2022-11-20T13:48:32;6.80;1.40
316;DHT22;14128;48.686;9.738;2022-11-20T13:51:10;6.80;1.40
316;DHT22;14128;48.686;9.738;2022-11-20T13:54:02;6.80;1.40
316;DHT22;14128;48.686;9.738;2022-11-20T13:56:43;6.90;1.40
316;DHT22;14128;48.686;9.738;2022-11-20T13:59:34;7.00;1.40
316;DHT22;14128;48.686;9.738;2022-11-20T14:02:10;7.00;1.40
316;DHT22;14128;48.686;9.738;2022-11-20T14:04:43;7.00;1.40
316;DHT22;14128;48.686;9.738;2022-11-20T14:07:11;7.00;1.40
316;DHT22;14128;48.686;9.738;2022-11-20T14:09:38;7.00;1.40
316;DHT22;14128;48.686;9.738;2022-11-20T14:12:16;7.00;1.40
316;DHT22;14128;48.686;9.738;2022-11-20T14:14:49;6.90;1.40
316;DHT22;14128;48.686;9.738;2022-11-20T14:17:18;6.70;1.40
316;DHT22;14128;48.686;9.738;2022-11-20T14:19:46;6.70;1.40
316;DHT22;14128;48.686;9.738;2022-11-20T14:22:19;6.80;1.40
316;DHT22;14128;48.686;9.738;2022-11-20T14:24:47;6.80;1.40
316;DHT22;14128;48.686;9.738;2022-11-20T14:27:17;6.80;1.40
316;DHT22;14128;48.686;9.738;2022-11-20T14:29:46;6.80;1.40
316;DHT22;14128;48.686;9.738;2022-11-20T14:32:16;6.90;1.40
316;DHT22;14128;48.686;9.738;2022-11-20T14:34:45;7.00;1.40
316;DHT22;14128;48.686;9.738;2022-11-20T14:37:16;6.90;1.40
316;DHT22;14128;48.686;9.738;2022-11-20T14:39:49;6.90;1.40
316;DHT22;14128;48.686;9.738;2022-11-20T14:42:18;7.00;1.40
316;DHT22;14128;48.686;9.738;2022-11-20T14:44:47;7.20;1.40
316;DHT22;14128;48.686;9.738;2022-11-20T14:47:18;7.40;1.40
316;DHT22;14128;48.686;9.738;2022-11-20T14:49:45;7.30;1.40
316;DHT22;14128;48.686;9.738;2022-11-20T14:52:15;7.00;1.40
316;DHT22;14128;48.686;9.738;2022-11-20T14:54:47;6.80;1.40
316;DHT22;14128;48.686;9.738;2022-11-20T14:57:24;6.60;1.40
316;DHT22;14128;48.686;9.738;2022-11-20T15:00:03;6.50;1.40
316;DHT22;14128;48.686;9.738;2022-11-20T15:02:30;6.40;1.40
316;DHT22;14128;48.686;9.738;2022-11-20T15:04:58;6.30;1.40
316;DHT22;14128;48.686;9.738;2022-11-20T15:07:28;6.30;1.40
316;DHT22;14128;48.686;9.738;2022-11-20T15:10:03;6.20;1.40
316;DHT22;14128;48.686;9.738;2022-11-20T15:12:32;6.00;1.40
316;DHT22;14128;48.686;9.738;2022-11-20T15:15:00;5.90;1.40
316;DHT22;14128;48.686;9.738;2022-11-20T15:17:28;5.70;1.40
316;DHT22;14128;48.686;9.738;2022-11-20T15:19:55;5.60;1.40
316;DHT22;14128;48.686;9.738;2022-11-20T15:22:22;5.50;1.40
316;DHT22;14128;48.686;9.738;2022-11-20T15:24:49;5.40;1.40
316;DHT22;14128;48.686;9.738;2022-11-20T15:27:15;5.30;1.40
316;DHT22;14128;48.686;9.738;2022-11-20T15:29:43;5.30;1.40
316;DHT22;14128;48.686;9.738;2022-11-20T15:32:10;5.30;1.40
316;DHT22;14128;48.686;9.738;2022-11-20T15:34:37;5.30;1.40
316;DHT22;14128;48.686;9.738;2022-11-20T15:37:04;5.30;1.40
316;DHT22;14128;48.686;9.738;2022-11-20T15:39:31;5.30;1.40
316;DHT22;14128;48.686;9.738;2022-11-20T15:41:57;5.40;1.40
316;DHT22;14128;48.686;9.738;2022-11-20T15:44:24;5.40;1.40
316;DHT22;14128;48.686;9.738;2022-11-20T15:46:52;5.50;1.40
316;DHT22;14128;48.686;9.738;2022-11-20T15:49:19;5.40;1.40
316;DHT22;14128;48.686;9.738;2022-11-20T15:51:49;5.40;1.40
316;DHT22;14128;48.686;9.738;2022-11-20T15:54:17;5.20;1.40
316;DHT22;14128;48.686;9.738;2022-11-20T15:56:45;5.00;1.40
316;DHT22;14128;48.686;9.738;2022-11-20T15:59:12;4.80;1.40
316;DHT22;14128;48.686;9.738;2022-11-20T16:01:40;4.70;1.40
316;DHT22;14128;48.686;9.738;2022-11-20T16:04:10;4.50;1.40
316;DHT22;14128;48.686;9.738;2022-11-20T16:06:37;4.30;1.40
316;DHT22;14128;48.686;9.738;2022-11-20T16:09:04;4.20;1.40
316;DHT22;14128;48.686;9.738;2022-11-20T16:11:31;4.10;1.40
316;DHT22;14128;48.686;9.738;2022-11-20T16:13:58;4.10;1.40
316;DHT22;14128;48.686;9.738;2022-11-20T16:16:42;4.00;1.40
316;DHT22;14128;48.686;9.738;2022-11-20T16:19:11;4.10;1.40
316;DHT22;14128;48.686;9.738;2022-11-20T16:21:38;4.00;1.40
316;DHT22;14128;48.686;9.738;2022-11-20T16:24:09;3.80;1.40
316;DHT22;14128;48.686;9.738;2022-11-20T16:26:36;3.70;1.40
316;DHT22;14128;48.686;9.738;2022-11-20T16:29:04;3.50;1.40
316;DHT22;14128;48.686;9.738;2022-11-20T16:31:31;3.50;1.40
316;DHT22;14128;48.686;9.738;2022-11-20T16:34:00;3.50;1.40
316;DHT22;14128;48.686;9.738;2022-11-20T16:36:28;3.50;1.40
316;DHT22;14128;48.686;9.738;2022-11-20T16:38:57;3.40;1.40
316;DHT22;14128;48.686;9.738;2022-11-20T16:41:25;3.40;1.40
316;DHT22;14128;48.686;9.738;2022-11-20T16:43:53;3.40;1.40
316;DHT22;14128;48.686;9.738;2022-11-20T16:46:23;3.50;1.40
316;DHT22;14128;48.686;9.738;2022-11-20T16:48:53;3.50;1.40
316;DHT22;14128;48.686;9.738;2022-11-20T16:51:20;3.50;1.40
316;DHT22;14128;48.686;9.738;2022-11-20T16:53:49;3.50;1.40
316;DHT22;14128;48.686;9.738;2022-11-20T16:56:17;3.50;1.40
316;DHT22;14128;48.686;9.738;2022-11-20T16:58:45;3.40;1.40